Time;durP1;ratioP1;P1;durP2;ratioP2;P2;SDS_P1;SDS_P2;PMS_P1;PMS_P2;Temp;Humidity;BMP_temperature;BMP_pressure;BME280_temperature;BME280_humidity;BME280_pressure;Samples;Min_cycle;Max_cycle;Signal;HPM_P1;HPM_P2
2024/02/20 00:02:01;;;;;;;13.40;9.50;;;;;;;5.92;100.00;99387.60;109284;1254;65118;-77
2024/02/20 00:04:28;;;;;;;11.50;8.60;;;;;;;5.90;100.00;99382.40;109181;1254;59403;-77
2024/02/20 00:06:54;;;;;;;10.10;8.20;;;;;;;5.88;100.00;99377.56;109281;1255;58982;-77
2024/02/20 00:09:21;;;;;;;8.90;5.90;;;;;;;5.87;100.00;99376.71;109308;1254;67047;-77
2024/02/20 00:11:48;;;;;;;10.00;7.00;;;;;;;5.86;100.00;99380.27;109291;1256;61141;-76
2024/02/20 00:14:14;;;;;;;9.60;6.50;;;;;;;5.85;100.00;99378.55;109302;1254;65182;-77
2024/02/20 00:16:41;;;;;;;8.30;6.40;;;;;;;5.85;100.00;99381.38;109267;1254;59236;-77
2024/02/20 00:19:08;;;;;;;10.00;6.40;;;;;;;5.84;100.00;99378.23;109310;1254;59331;-76
2024/02/20 00:21:35;;;;;;;7.10;5.40;;;;;;;5.83;100.00;99381.27;109277;1254;66960;-76
2024/02/20 00:24:01;;;;;;;6.70;5.30;;;;;;;5.83;100.00;99381.64;109298;1255;60868;-75
2024/02/20 00:26:28;;;;;;;7.60;5.10;;;;;;;5.82;100.00;99385.73;109281;1254;65117;-76
2024/02/20 00:28:55;;;;;;;6.80;5.10;;;;;;;5.80;100.00;99379.99;109298;1255;59088;-76
2024/02/20 00:31:22;;;;;;;10.10;5.80;;;;;;;5.80;100.00;99376.48;109013;1255;59995;-76
2024/02/20 00:33:49;;;;;;;9.80;6.40;;;;;;;5.78;100.00;99376.37;109306;1255;66018;-76
2024/02/20 00:36:15;;;;;;;6.90;6.00;;;;;;;5.76;100.00;99377.88;109295;1255;61101;-76
2024/02/20 00:38:42;;;;;;;7.20;6.00;;;;;;;5.73;100.00;99376.05;109325;1255;65030;-77
2024/02/20 00:41:08;;;;;;;9.30;6.20;;;;;;;5.72;100.00;99382.10;109253;1255;58909;-75
2024/02/20 00:43:35;;;;;;;8.70;6.30;;;;;;;5.71;100.00;99381.42;109290;1254;59079;-77
2024/02/20 00:46:03;;;;;;;9.60;5.90;;;;;;;5.71;100.00;99380.71;109264;1254;65942;-76
2024/02/20 00:48:29;;;;;;;7.40;5.50;;;;;;;5.72;100.00;99378.20;109308;1255;61131;-76
2024/02/20 00:50:56;;;;;;;9.00;5.50;;;;;;;5.72;100.00;99379.80;109292;1255;65108;-76
2024/02/20 00:53:23;;;;;;;7.80;5.10;;;;;;;5.71;100.00;99381.05;109318;1254;59563;-76
2024/02/20 00:55:50;;;;;;;7.70;5.10;;;;;;;5.72;100.00;99379.98;109294;1254;58963;-77
2024/02/20 00:58:16;;;;;;;6.30;4.80;;;;;;;5.72;100.00;99376.78;109319;1254;66991;-75
2024/02/20 01:00:43;;;;;;;6.00;4.70;;;;;;;5.73;100.00;99371.45;109305;1254;60229;-75
2024/02/20 01:03:10;;;;;;;5.90;4.30;;;;;;;5.74;100.00;99369.33;109265;1256;63987;-76
2024/02/20 01:05:36;;;;;;;7.90;4.80;;;;;;;5.74;100.00;99364.21;109281;1254;59122;-76
2024/02/20 01:08:03;;;;;;;5.70;4.10;;;;;;;5.75;100.00;99365.95;109279;1254;58865;-76
2024/02/20 01:10:30;;;;;;;7.30;4.00;;;;;;;5.75;100.00;99360.98;109269;1254;66194;-76
2024/02/20 01:12:57;;;;;;;6.50;4.80;;;;;;;5.75;100.00;99363.48;109262;1256;59952;-76
2024/02/20 01:15:23;;;;;;;5.90;3.70;;;;;;;5.75;100.00;99359.44;109270;1254;62772;-76
2024/02/20 01:17:50;;;;;;;5.50;3.80;;;;;;;5.74;100.00;99355.21;109310;1254;58997;-76
2024/02/20 01:20:17;;;;;;;5.40;3.60;;;;;;;5.73;100.00;99352.76;109286;1254;59088;-76
2024/02/20 01:22:44;;;;;;;6.20;3.80;;;;;;;5.73;100.00;99347.14;109261;1259;66952;-76
2024/02/20 01:25:10;;;;;;;4.00;3.10;;;;;;;5.72;100.00;99341.89;109287;1255;60062;-75
2024/02/20 01:27:37;;;;;;;3.50;2.90;;;;;;;5.73;100.00;99343.95;108991;1255;62761;-76
2024/02/20 01:30:04;;;;;;;5.10;3.20;;;;;;;5.75;100.00;99346.55;109264;1257;59425;-76
2024/02/20 01:32:31;;;;;;;5.50;4.10;;;;;;;5.76;100.00;99343.15;109295;1254;59205;-78
2024/02/20 01:34:57;;;;;;;4.80;4.00;;;;;;;5.75;100.00;99339.13;109279;1254;67015;-76
2024/02/20 01:37:24;;;;;;;6.20;4.20;;;;;;;5.74;100.00;99338.98;109312;1254;60093;-77
2024/02/20 01:39:51;;;;;;;6.00;4.20;;;;;;;5.73;100.00;99337.09;109277;1254;64028;-77
2024/02/20 01:42:17;;;;;;;7.40;4.90;;;;;;;5.71;100.00;99336.30;109041;1256;58990;-75
2024/02/20 01:44:44;;;;;;;6.00;4.70;;;;;;;5.69;100.00;99333.73;109294;1254;58949;-76
2024/02/20 01:47:11;;;;;;;7.40;5.80;;;;;;;5.67;100.00;99334.36;109287;1254;66072;-76
2024/02/20 01:49:37;;;;;;;5.90;5.40;;;;;;;5.65;100.00;99333.55;109190;1254;61104;-76
2024/02/20 01:52:08;;;;;;;8.80;6.80;;;;;;;5.63;100.00;99331.33;109058;1254;64664;-76
2024/02/20 01:54:35;;;;;;;8.40;6.60;;;;;;;5.62;100.00;99327.86;109265;1254;59153;-76
2024/02/20 01:57:02;;;;;;;7.00;5.70;;;;;;;5.61;100.00;99321.90;109293;1254;59018;-77
2024/02/20 01:59:29;;;;;;;6.90;5.30;;;;;;;5.60;100.00;99319.98;109303;1254;65915;-76
2024/02/20 02:01:56;;;;;;;8.00;5.70;;;;;;;5.59;100.00;99317.23;109064;1255;60999;-77
2024/02/20 02:04:22;;;;;;;10.20;6.40;;;;;;;5.59;100.00;99319.70;109268;1254;65022;-76
2024/02/20 02:06:49;;;;;;;8.00;6.00;;;;;;;5.59;100.00;99321.97;109262;1256;58952;-76
2024/02/20 02:09:15;;;;;;;8.20;6.30;;;;;;;5.60;100.00;99318.22;109033;1254;59037;-77
2024/02/20 02:11:42;;;;;;;9.00;5.80;;;;;;;5.61;100.00;99318.38;109341;1255;67156;-76
2024/02/20 02:14:09;;;;;;;8.40;6.30;;;;;;;5.62;100.00;99318.89;109286;1255;61412;-76
2024/02/20 02:16:38;;;;;;;6.20;5.30;;;;;;;5.62;100.00;99319.41;109265;1254;65084;-76
2024/02/20 02:19:05;;;;;;;9.80;6.00;;;;;;;5.62;100.00;99315.35;109246;1254;60026;-77
2024/02/20 02:21:31;;;;;;;7.70;5.30;;;;;;;5.62;100.00;99316.21;109287;1254;59020;-77
2024/02/20 02:23:58;;;;;;;10.90;6.60;;;;;;;5.62;100.00;99319.38;109347;1254;67236;-76
2024/02/20 02:26:25;;;;;;;7.70;5.60;;;;;;;5.62;100.00;99321.68;109294;1254;61027;-77
2024/02/20 02:28:51;;;;;;;7.70;5.80;;;;;;;5.62;100.00;99318.69;109279;1254;64162;-76
2024/02/20 02:31:18;;;;;;;7.90;5.40;;;;;;;5.63;100.00;99313.37;109273;1254;59151;-77
2024/02/20 02:33:46;;;;;;;7.60;6.30;;;;;;;5.62;100.00;99316.20;109011;1254;59011;-78
2024/02/20 02:36:13;;;;;;;9.40;6.70;;;;;;;5.63;100.00;99316.69;109311;1254;67039;-75
2024/02/20 02:38:39;;;;;;;7.70;6.40;;;;;;;5.64;100.00;99312.98;109315;1254;61091;-76
2024/02/20 02:41:06;;;;;;;8.50;6.20;;;;;;;5.64;100.00;99313.81;108994;1254;64646;-77
2024/02/20 02:43:33;;;;;;;8.60;6.60;;;;;;;5.65;100.00;99312.23;109274;1254;58947;-76
2024/02/20 02:45:59;;;;;;;10.20;7.60;;;;;;;5.66;100.00;99312.00;109292;1254;59353;-76
2024/02/20 02:48:26;;;;;;;9.00;6.90;;;;;;;5.66;100.00;99310.74;109260;1257;67006;-76
2024/02/20 02:50:52;;;;;;;9.00;8.00;;;;;;;5.67;100.00;99310.36;109291;1254;60821;-75
2024/02/20 02:53:21;;;;;;;10.00;7.10;;;;;;;5.67;100.00;99307.89;109268;1254;65147;-77
2024/02/20 02:55:48;;;;;;;10.80;8.80;;;;;;;5.67;100.00;99305.94;109273;1257;58999;-75
2024/02/20 02:58:15;;;;;;;9.90;8.90;;;;;;;5.68;100.00;99303.09;109279;1255;59046;-76
2024/02/20 03:00:41;;;;;;;12.00;9.80;;;;;;;5.68;100.00;99304.68;109312;1254;67001;-76
2024/02/20 03:03:08;;;;;;;11.10;9.90;;;;;;;5.67;100.00;99306.83;109297;1254;60221;-77
2024/02/20 03:05:37;;;;;;;12.40;10.20;;;;;;;5.68;100.00;99309.09;109058;1254;65226;-77
2024/02/20 03:08:04;;;;;;;9.90;8.90;;;;;;;5.69;100.00;99310.81;109285;1259;59002;-75
2024/02/20 03:10:31;;;;;;;10.10;9.00;;;;;;;5.71;100.00;99313.92;109377;1254;58930;-76
2024/02/20 03:12:58;;;;;;;9.40;8.50;;;;;;;5.72;100.00;99316.83;109397;1254;67026;-76
2024/02/20 03:15:24;;;;;;;10.80;9.80;;;;;;;5.75;100.00;99318.33;109354;1254;59999;-76
2024/02/20 03:17:51;;;;;;;10.00;9.00;;;;;;;5.77;100.00;99320.37;109265;1254;64147;-77
2024/02/20 03:20:19;;;;;;;10.20;9.10;;;;;;;5.79;100.00;99316.58;109312;1254;59338;-77
2024/02/20 03:22:46;;;;;;;9.40;8.50;;;;;;;5.80;100.00;99321.80;109302;1254;58977;-76
2024/02/20 03:25:16;;;;;;;10.00;9.00;;;;;;;5.82;100.00;99321.02;109345;1254;67170;-76
2024/02/20 03:27:43;;;;;;;;;;;;;;;5.83;100.00;99320.11;109333;1254;59266;-77
2024/02/20 03:30:10;;;;;;;8.50;7.60;;;;;;;5.83;100.00;99319.41;108971;1254;62797;-77
2024/02/20 03:32:37;;;;;;;8.70;7.60;;;;;;;5.83;100.00;99319.58;109327;1254;59450;-77
2024/02/20 03:35:10;;;;;;;9.40;8.50;;;;;;;5.83;100.00;99317.83;109291;1256;59043;-76
2024/02/20 03:37:38;;;;;;;8.50;7.70;;;;;;;5.84;100.00;99321.12;109309;1256;65871;-77
2024/02/20 03:40:05;;;;;;;8.40;7.60;;;;;;;5.85;100.00;99317.56;109355;1254;59364;-76
2024/02/20 03:42:32;;;;;;;8.30;7.60;;;;;;;5.86;100.00;99316.61;109015;1254;65116;-76
2024/02/20 03:44:58;;;;;;;8.40;7.60;;;;;;;5.88;100.00;99319.36;109139;1254;59079;-76
2024/02/20 03:47:25;;;;;;;7.30;6.40;;;;;;;5.89;100.00;99314.02;109319;1254;59083;-77
2024/02/20 03:49:52;;;;;;;6.60;6.00;;;;;;;5.90;100.00;99311.71;109276;1256;66060;-77
2024/02/20 03:52:19;;;;;;;7.30;6.70;;;;;;;5.90;100.00;99313.64;109322;1254;60034;-76
2024/02/20 03:54:45;;;;;;;7.00;6.40;;;;;;;5.91;100.00;99314.63;109280;1255;65109;-75
2024/02/20 03:57:12;;;;;;;7.20;6.60;;;;;;;5.93;100.00;99319.70;109309;1254;59214;-75
2024/02/20 03:59:38;;;;;;;7.40;6.80;;;;;;;5.94;100.00;99319.13;109031;1254;59024;-76
2024/02/20 04:02:06;;;;;;;6.80;6.20;;;;;;;5.95;100.00;99322.27;109318;1254;67060;-76
2024/02/20 04:04:34;;;;;;;7.70;6.90;;;;;;;5.97;100.00;99327.30;109327;1254;61048;-77
2024/02/20 04:07:02;;;;;;;6.40;5.80;;;;;;;5.99;100.00;99333.41;109280;1254;63786;-76
2024/02/20 04:09:28;;;;;;;6.20;5.60;;;;;;;6.00;100.00;99333.52;109301;1254;58996;-76
2024/02/20 04:11:55;;;;;;;6.10;5.50;;;;;;;6.02;100.00;99333.29;109332;1254;58976;-77
2024/02/20 04:14:22;;;;;;;5.70;4.90;;;;;;;6.02;100.00;99330.45;109325;1254;67006;-76
2024/02/20 04:16:48;;;;;;;6.10;5.50;;;;;;;6.02;100.00;99329.89;109340;1254;60055;-76
2024/02/20 04:19:15;;;;;;;5.60;5.10;;;;;;;6.03;100.00;99325.27;109288;1254;65039;-76
2024/02/20 04:21:42;;;;;;;5.60;5.00;;;;;;;6.04;100.00;99321.55;109295;1254;58982;-76
2024/02/20 04:24:08;;;;;;;6.20;5.60;;;;;;;6.04;100.00;99321.86;109300;1254;59012;-77
2024/02/20 04:26:35;;;;;;;5.90;5.30;;;;;;;6.05;100.00;99319.02;109341;1254;67295;-76
2024/02/20 04:29:02;;;;;;;5.70;5.20;;;;;;;6.07;100.00;99327.08;109286;1258;61217;-76
2024/02/20 04:31:30;;;;;;;5.70;5.20;;;;;;;6.08;100.00;99335.28;109271;1254;65134;-77
2024/02/20 04:33:56;;;;;;;5.60;4.90;;;;;;;6.09;100.00;99336.15;109290;1254;59016;-76
2024/02/20 04:36:23;;;;;;;5.50;4.90;;;;;;;6.09;100.00;99330.30;109302;1258;59013;-77
2024/02/20 04:38:56;;;;;;;5.50;4.90;;;;;;;6.10;100.00;99336.09;109344;1254;64851;-76
2024/02/20 04:41:24;;;;;;;5.40;4.90;;;;;;;6.11;100.00;99340.09;109299;1254;60138;-76
2024/02/20 04:43:51;;;;;;;4.70;4.30;;;;;;;6.12;100.00;99337.92;109271;1254;65162;-76
2024/02/20 04:46:18;;;;;;;4.90;4.40;;;;;;;6.12;100.00;99335.64;109269;1254;59165;-76
2024/02/20 04:48:45;;;;;;;4.60;4.20;;;;;;;6.13;100.00;99333.48;109283;1254;59045;-77
2024/02/20 04:51:11;;;;;;;5.20;4.30;;;;;;;6.13;100.00;99332.58;109279;1254;66932;-76
2024/02/20 04:53:38;;;;;;;5.00;4.30;;;;;;;6.14;100.00;99330.29;109291;1254;60996;-76
2024/02/20 04:56:05;;;;;;;4.90;4.50;;;;;;;6.14;100.00;99328.15;109138;1255;65366;-76
2024/02/20 04:58:32;;;;;;;5.10;4.40;;;;;;;6.15;100.00;99329.34;109268;1254;58949;-76
2024/02/20 05:00:58;;;;;;;4.50;4.10;;;;;;;6.15;100.00;99328.63;109289;1254;58964;-77
2024/02/20 05:03:25;;;;;;;3.90;3.50;;;;;;;6.16;100.00;99331.24;109049;1254;66575;-76
2024/02/20 05:05:52;;;;;;;4.60;3.90;;;;;;;6.18;100.00;99331.89;109308;1254;61065;-77
2024/02/20 05:08:18;;;;;;;4.60;4.00;;;;;;;6.18;100.00;99328.17;109285;1254;63997;-76
2024/02/20 05:10:45;;;;;;;4.90;4.40;;;;;;;6.18;100.00;99330.13;108971;1263;59440;-77
2024/02/20 05:13:12;;;;;;;4.50;4.00;;;;;;;6.16;100.00;99329.66;109282;1259;58927;-77
2024/02/20 05:15:39;;;;;;;4.40;4.00;;;;;;;6.13;100.00;99330.66;109273;1255;67047;-77
2024/02/20 05:18:05;;;;;;;5.50;3.20;;;;;;;6.10;100.00;99330.44;109290;1254;59693;-75
2024/02/20 05:20:32;;;;;;;4.60;3.80;;;;;;;6.09;100.00;99334.55;109245;1254;65190;-76
2024/02/20 05:22:58;;;;;;;5.00;3.90;;;;;;;6.09;100.00;99334.71;108995;1254;59076;-76
2024/02/20 05:25:25;;;;;;;4.20;3.80;;;;;;;6.09;100.00;99330.48;109317;1254;58960;-76
2024/02/20 05:27:52;;;;;;;5.50;4.50;;;;;;;6.09;100.00;99333.29;109291;1254;65956;-75
2024/02/20 05:30:18;;;;;;;4.10;3.80;;;;;;;6.10;100.00;99339.78;109306;1254;60991;-77
2024/02/20 05:32:45;;;;;;;5.10;4.00;;;;;;;6.11;100.00;99339.03;109273;1254;65072;-76
2024/02/20 05:35:11;;;;;;;4.60;3.80;;;;;;;6.12;100.00;99338.80;109261;1254;58949;-77
2024/02/20 05:37:38;;;;;;;5.50;4.20;;;;;;;6.14;100.00;99339.29;109296;1254;59401;-78
2024/02/20 05:40:07;;;;;;;5.20;4.20;;;;;;;6.15;100.00;99343.45;109276;1254;67302;-76
2024/02/20 05:42:34;;;;;;;5.00;4.10;;;;;;;6.16;100.00;99346.41;109294;1254;60103;-76
2024/02/20 05:45:00;;;;;;;5.00;4.40;;;;;;;6.16;100.00;99346.41;109262;1254;65228;-76
2024/02/20 05:47:27;;;;;;;7.30;4.20;;;;;;;6.17;100.00;99348.48;109275;1254;58981;-76
2024/02/20 05:49:54;;;;;;;4.70;3.90;;;;;;;6.19;100.00;99348.77;109308;1254;59091;-76
2024/02/20 05:52:20;;;;;;;5.90;4.70;;;;;;;6.20;100.00;99344.66;109301;1254;67022;-76
2024/02/20 05:54:47;;;;;;;4.70;4.30;;;;;;;6.21;100.00;99345.15;109271;1255;60106;-76
2024/02/20 05:57:14;;;;;;;5.00;4.00;;;;;;;6.23;100.00;99344.90;109012;1254;65166;-76
2024/02/20 05:59:41;;;;;;;5.30;4.00;;;;;;;6.23;100.00;99344.52;109264;1254;58954;-76
2024/02/20 06:02:07;;;;;;;3.90;3.50;;;;;;;6.25;100.00;99344.25;109196;1254;59105;-76
2024/02/20 06:04:34;;;;;;;4.90;4.00;;;;;;;6.26;100.00;99347.02;109302;1254;67056;-75
2024/02/20 06:07:00;;;;;;;4.40;4.00;;;;;;;6.28;100.00;99352.95;108966;1257;60893;-76
2024/02/20 06:09:28;;;;;;;5.50;4.60;;;;;;;6.32;100.00;99356.50;108962;1257;65363;-76
2024/02/20 06:11:55;;;;;;;5.20;4.10;;;;;;;6.35;100.00;99357.94;108930;1257;59553;-76
2024/02/20 06:14:22;;;;;;;5.10;4.40;;;;;;;6.37;100.00;99361.16;108932;1258;59108;-77
2024/02/20 06:16:48;;;;;;;5.10;4.50;;;;;;;6.40;100.00;99362.29;108945;1258;66011;-77
2024/02/20 06:19:15;;;;;;;6.00;4.20;;;;;;;6.43;100.00;99366.73;108941;1261;60913;-77
2024/02/20 06:21:42;;;;;;;6.20;4.20;;;;;;;6.46;100.00;99371.20;108961;1260;65161;-76
2024/02/20 06:24:10;;;;;;;5.30;4.10;;;;;;;6.49;100.00;99373.04;108907;1260;59197;-76
2024/02/20 06:26:36;;;;;;;6.80;6.00;;;;;;;6.52;100.00;99370.60;108936;1259;58940;-76
2024/02/20 06:29:04;;;;;;;6.50;4.80;;;;;;;6.54;100.00;99370.86;108925;1260;66064;-76
2024/02/20 06:31:31;;;;;;;6.10;5.60;;;;;;;6.57;100.00;99368.08;108932;1258;60925;-76
2024/02/20 06:33:57;;;;;;;8.00;7.30;;;;;;;6.61;100.00;99366.84;108945;1260;65137;-77
2024/02/20 06:36:26;;;;;;;9.00;6.40;;;;;;;6.66;100.00;99366.98;108734;1260;59095;-77
2024/02/20 06:38:52;;;;;;;6.60;5.20;;;;;;;6.71;100.00;99365.84;109142;1256;59272;-77
2024/02/20 06:41:19;;;;;;;7.20;5.70;;;;;;;6.78;100.00;99366.23;109144;1256;67082;-77
2024/02/20 06:43:46;;;;;;;7.90;5.20;;;;;;;6.83;100.00;99366.73;109007;1257;60078;-76
2024/02/20 06:46:12;;;;;;;6.30;5.00;;;;;;;6.87;100.00;99365.51;109201;1255;63814;-76
2024/02/20 06:48:39;;;;;;;5.60;4.90;;;;;;;6.90;100.00;99371.36;109179;1255;58975;-76
2024/02/20 06:51:05;;;;;;;5.10;4.60;;;;;;;6.92;100.00;99376.59;109227;1257;59053;-77
2024/02/20 06:53:32;;;;;;;5.10;4.60;;;;;;;6.91;100.00;99377.48;108966;1258;73680;-76
2024/02/20 06:55:59;;;;;;;5.70;5.10;;;;;;;6.90;100.00;99378.10;109182;1257;60132;-76
2024/02/20 06:58:26;;;;;;;5.50;4.90;;;;;;;6.87;100.00;99380.52;109020;1256;64203;-77
2024/02/20 07:00:53;;;;;;;7.00;5.50;;;;;;;6.84;100.00;99383.66;108926;1257;59432;-77
2024/02/20 07:03:20;;;;;;;4.70;4.10;;;;;;;6.82;100.00;99380.92;109162;1256;59412;-77
2024/02/20 07:05:47;;;;;;;4.80;4.40;;;;;;;6.81;100.00;99383.09;109183;1257;66157;-77
2024/02/20 07:08:14;;;;;;;5.60;4.60;;;;;;;6.81;100.00;99384.67;109167;1257;61676;-76
2024/02/20 07:10:40;;;;;;;5.40;4.30;;;;;;;6.82;100.00;99388.69;109186;1256;65046;-76
2024/02/20 07:13:07;;;;;;;7.70;4.70;;;;;;;6.80;100.00;99388.92;109187;1256;59035;-76
2024/02/20 07:15:33;;;;;;;5.60;5.00;;;;;;;6.79;100.00;99395.34;109192;1256;59102;-77
2024/02/20 07:18:00;;;;;;;6.20;4.20;;;;;;;6.78;100.00;99400.34;109024;1257;75355;-77
2024/02/20 07:20:27;;;;;;;4.80;4.40;;;;;;;6.78;100.00;99404.55;109191;1257;59734;-77
2024/02/20 07:22:54;;;;;;;5.50;4.00;;;;;;;6.78;100.00;99404.39;109019;1257;65370;-77
2024/02/20 07:25:22;;;;;;;5.90;3.80;;;;;;;6.78;100.00;99407.07;109216;1255;59252;-76
2024/02/20 07:27:49;;;;;;;5.90;4.90;;;;;;;6.78;100.00;99410.42;109187;1256;60032;-78
2024/02/20 07:30:16;;;;;;;7.60;5.50;;;;;;;6.80;100.00;99410.45;109209;1256;65989;-76
2024/02/20 07:32:43;;;;;;;7.00;4.90;;;;;;;6.84;100.00;99408.90;109194;1256;61099;-76
2024/02/20 07:35:10;;;;;;;5.50;4.80;;;;;;;6.88;100.00;99411.40;109140;1256;64019;-78
2024/02/20 07:37:38;;;;;;;5.80;5.00;;;;;;;6.91;100.00;99413.16;108944;1256;59081;-77
2024/02/20 07:40:06;;;;;;;7.10;5.30;;;;;;;6.95;100.00;99414.23;109218;1256;59039;-76
2024/02/20 07:42:32;;;;;;;6.20;5.60;;;;;;;6.97;100.00;99413.96;109190;1256;65808;-76
2024/02/20 07:44:59;;;;;;;5.90;5.10;;;;;;;6.98;100.00;99416.75;109204;1256;60999;-76
2024/02/20 07:47:26;;;;;;;5.60;4.70;;;;;;;7.00;100.00;99416.30;109187;1256;62729;-77
2024/02/20 07:49:52;;;;;;;7.80;5.20;;;;;;;7.05;100.00;99421.02;108945;1255;59076;-76
2024/02/20 07:52:19;;;;;;;7.00;5.40;;;;;;;7.11;100.00;99418.80;109171;1256;59510;-78
2024/02/20 07:54:45;;;;;;;6.30;5.50;;;;;;;7.17;100.00;99416.24;109084;1257;67072;-76
2024/02/20 07:57:12;;;;;;;5.80;5.30;;;;;;;7.20;100.00;99416.97;109186;1257;59861;-76
2024/02/20 07:59:39;;;;;;;7.10;5.70;;;;;;;7.20;100.00;99421.02;109192;1256;65069;-75
2024/02/20 08:02:08;;;;;;;6.20;5.60;;;;;;;7.20;100.00;99422.42;109192;1255;58980;-77
2024/02/20 08:04:36;;;;;;;5.40;4.90;;;;;;;7.20;100.00;99418.58;109212;1256;59121;-77
2024/02/20 08:07:03;;;;;;;8.30;4.90;;;;;;;7.19;100.00;99423.21;109204;1256;66045;-76
2024/02/20 08:09:29;;;;;;;7.20;5.30;;;;;;;7.18;100.00;99426.78;108960;1257;60064;-76
2024/02/20 08:11:56;;;;;;;7.00;5.50;;;;;;;7.18;100.00;99424.66;109161;1255;65038;-78
2024/02/20 08:14:25;;;;;;;7.00;5.10;;;;;;;7.16;100.00;99424.04;109179;1256;59043;-77
2024/02/20 08:16:51;;;;;;;7.20;5.10;;;;;;;7.15;100.00;99428.69;109189;1256;59095;-75
2024/02/20 08:19:18;;;;;;;9.60;6.00;;;;;;;7.11;100.00;99427.81;108992;1256;66109;-77
2024/02/20 08:21:45;;;;;;;6.80;5.70;;;;;;;7.06;100.00;99423.42;109194;1256;61178;-76
2024/02/20 08:24:12;;;;;;;6.90;6.00;;;;;;;7.04;100.00;99420.90;108882;1256;65351;-76
2024/02/20 08:26:39;;;;;;;8.00;6.50;;;;;;;7.03;100.00;99421.29;109166;1255;59489;-77
2024/02/20 08:29:08;;;;;;;8.30;7.20;;;;;;;7.02;100.00;99422.71;108981;1255;59288;-76
2024/02/20 08:31:34;;;;;;;7.70;6.80;;;;;;;7.01;100.00;99426.13;109178;1256;67015;-77
2024/02/20 08:34:01;;;;;;;7.70;6.70;;;;;;;7.00;100.00;99429.38;109189;1256;61067;-77
2024/02/20 08:36:28;;;;;;;7.60;6.80;;;;;;;6.99;100.00;99431.74;109189;1255;64009;-76
2024/02/20 08:38:54;;;;;;;8.60;7.40;;;;;;;6.97;100.00;99433.38;109180;1256;59034;-77
2024/02/20 08:41:21;;;;;;;10.30;7.00;;;;;;;6.99;100.00;99431.35;109173;1255;59053;-77
2024/02/20 08:43:49;;;;;;;8.10;7.00;;;;;;;7.01;100.00;99430.89;109062;1256;67172;-76
2024/02/20 08:46:16;;;;;;;8.30;7.50;;;;;;;7.07;100.00;99430.31;109196;1255;61160;-77
2024/02/20 08:48:42;;;;;;;11.30;8.00;;;;;;;7.13;100.00;99430.36;109170;1256;65296;-77
2024/02/20 08:51:09;;;;;;;8.00;7.20;;;;;;;7.19;100.00;99431.52;109149;1256;59010;-75
2024/02/20 08:53:36;;;;;;;9.10;7.90;;;;;;;7.26;100.00;99430.50;109170;1256;59026;-77
2024/02/20 08:56:03;;;;;;;9.90;8.10;;;;;;;7.34;100.00;99431.18;109198;1255;67212;-76
2024/02/20 08:58:29;;;;;;;8.10;7.30;;;;;;;7.43;100.00;99434.64;109185;1255;58988;-76
2024/02/20 09:00:56;;;;;;;8.50;6.90;;;;;;;7.54;100.00;99429.86;109176;1255;65187;-76
2024/02/20 09:03:27;;;;;;;8.20;6.90;;;;;;;7.62;100.00;99431.83;109078;1255;59027;-77
2024/02/20 09:05:54;;;;;;;9.30;8.00;;;;;;;7.64;100.00;99434.34;109250;1255;59059;-77
2024/02/20 09:08:21;;;;;;;9.40;7.90;;;;;;;7.67;100.00;99434.36;109186;1255;66739;-76
2024/02/20 09:10:47;;;;;;;8.80;6.50;;;;;;;7.72;100.00;99432.90;109219;1255;60267;-77
2024/02/20 09:13:14;;;;;;;8.10;7.30;;;;;;;7.76;100.00;99426.33;109183;1255;63963;-76
2024/02/20 09:15:41;;;;;;;7.90;6.90;;;;;;;7.77;100.00;99428.41;108991;1256;59464;-76
2024/02/20 09:18:07;;;;;;;10.20;8.60;;;;;;;7.75;100.00;99431.38;109210;1256;59052;-77
2024/02/20 09:20:35;;;;;;;8.80;7.80;;;;;;;7.69;100.00;99430.73;109190;1256;64749;-78
2024/02/20 09:23:02;;;;;;;8.40;7.30;;;;;;;7.64;100.00;99430.28;108983;1257;61134;-76
2024/02/20 09:25:29;;;;;;;10.00;7.70;;;;;;;7.62;100.00;99430.92;109192;1255;65307;-77
2024/02/20 09:27:55;;;;;;;8.60;7.70;;;;;;;7.59;100.00;99431.91;109185;1256;59000;-76
2024/02/20 09:30:22;;;;;;;9.60;8.50;;;;;;;7.55;100.00;99428.25;109204;1255;58908;-77
2024/02/20 09:32:48;;;;;;;9.60;8.40;;;;;;;7.50;100.00;99432.17;109217;1255;67196;-76
2024/02/20 09:35:15;;;;;;;10.30;8.00;;;;;;;7.48;100.00;99434.02;109218;1256;60164;-76
2024/02/20 09:37:42;;;;;;;10.10;7.90;;;;;;;7.47;100.00;99433.53;109204;1255;65112;-76
2024/02/20 09:40:14;;;;;;;9.70;8.70;;;;;;;7.52;100.00;99436.86;109183;1255;59933;-77
2024/02/20 09:42:41;;;;;;;9.80;8.40;;;;;;;7.60;100.00;99433.32;108925;1256;59060;-76
2024/02/20 09:45:15;;;;;;;9.70;6.80;;;;;;;7.65;100.00;99431.31;108964;1256;65974;-77
2024/02/20 09:47:42;;;;;;;8.40;7.50;;;;;;;7.69;100.00;99433.20;109224;1255;61079;-75
2024/02/20 09:50:10;;;;;;;8.50;7.70;;;;;;;7.76;100.00;99429.20;109197;1256;65207;-76
2024/02/20 09:52:39;;;;;;;10.10;7.60;;;;;;;7.83;100.00;99428.15;109055;1256;58948;-76
2024/02/20 09:55:08;;;;;;;8.40;7.50;;;;;;;7.92;100.00;99427.89;109230;1255;59244;-76
2024/02/20 09:57:36;;;;;;;8.80;7.80;;;;;;;7.96;100.00;99428.18;109186;1255;66563;-76
2024/02/20 10:00:03;;;;;;;8.10;7.30;;;;;;;7.99;100.00;99427.35;109219;1256;60331;-77
2024/02/20 10:02:30;;;;;;;7.90;7.10;;;;;;;8.00;100.00;99429.60;109195;1255;63901;-76
2024/02/20 10:04:58;;;;;;;8.60;7.70;;;;;;;7.99;100.00;99435.68;109194;1255;59048;-77
2024/02/20 10:07:25;;;;;;;8.00;7.20;;;;;;;7.97;100.00;99438.25;109243;1255;59328;-77
2024/02/20 10:09:53;;;;;;;8.80;7.00;;;;;;;7.96;100.00;99435.25;108954;1257;67035;-77
2024/02/20 10:12:21;;;;;;;8.00;6.90;;;;;;;8.04;100.00;99432.08;109081;1256;61120;-77
2024/02/20 10:14:48;;;;;;;7.20;5.70;;;;;;;8.17;100.00;99430.90;109222;1255;65230;-76
2024/02/20 10:17:16;;;;;;;10.20;7.60;;;;;;;8.28;100.00;99433.35;109194;1255;58868;-76
2024/02/20 10:19:43;;;;;;;8.40;7.30;;;;;;;8.46;100.00;99431.39;108966;1255;59067;-77
2024/02/20 10:22:10;;;;;;;8.00;7.20;;;;;;;8.67;100.00;99428.91;109230;1256;66021;-74
2024/02/20 10:24:38;;;;;;;8.60;6.60;;;;;;;8.83;100.00;99430.03;109221;1255;61050;-76
2024/02/20 10:27:05;;;;;;;6.80;5.70;;;;;;;8.91;100.00;99426.95;109211;1256;64997;-77
2024/02/20 10:29:32;;;;;;;7.50;6.60;;;;;;;9.00;100.00;99426.25;109183;1255;59420;-76
2024/02/20 10:31:59;;;;;;;6.30;5.70;;;;;;;9.10;100.00;99428.39;109216;1255;59125;-76
2024/02/20 10:34:25;;;;;;;8.80;6.00;;;;;;;9.14;100.00;99426.61;109212;1255;66689;-77
2024/02/20 10:37:04;;;;;;;6.40;5.30;;;;;;;9.22;100.00;99423.86;109222;1255;61440;-76
2024/02/20 10:39:30;;;;;;;8.30;6.20;;;;;;;9.32;100.00;99424.86;108938;1256;64063;-77
2024/02/20 10:42:02;;;;;;;5.80;5.10;;;;;;;9.33;100.00;99425.89;109185;1255;59053;-76
2024/02/20 10:44:29;;;;;;;6.20;5.60;;;;;;;9.28;100.00;99426.02;108993;1256;59135;-78
2024/02/20 10:46:58;;;;;;;6.30;5.60;;;;;;;9.23;100.00;99429.96;109230;1255;67021;-76
2024/02/20 10:49:30;;;;;;;7.90;5.50;;;;;;;9.22;100.00;99427.91;109048;1256;60843;-76
2024/02/20 10:51:57;;;;;;;6.60;5.50;;;;;;;9.23;100.00;99423.05;109174;1255;65130;-77
2024/02/20 10:54:25;;;;;;;5.50;4.90;;;;;;;9.23;100.00;99429.79;109232;1255;59021;-77
2024/02/20 10:56:54;;;;;;;8.50;6.00;;;;;;;9.22;100.00;99423.83;109231;1255;59058;-76
2024/02/20 10:59:21;;;;;;;8.50;5.80;;;;;;;9.16;100.00;99425.02;109070;1258;65917;-76
2024/02/20 11:01:48;;;;;;;6.40;5.60;;;;;;;9.08;100.00;99425.13;109206;1255;60049;-76
2024/02/20 11:04:15;;;;;;;8.50;6.60;;;;;;;9.03;100.00;99428.57;109206;1256;65043;-76
2024/02/20 11:06:43;;;;;;;6.80;6.10;;;;;;;9.02;100.00;99424.92;109202;1255;58997;-76
2024/02/20 11:09:10;;;;;;;8.80;6.00;;;;;;;9.00;100.00;99421.28;109233;1255;58907;-77
2024/02/20 11:11:37;;;;;;;6.80;5.90;;;;;;;8.97;100.00;99420.73;109230;1256;66084;-77
2024/02/20 11:14:04;;;;;;;7.80;6.20;;;;;;;8.97;100.00;99418.64;109193;1255;61113;-76
2024/02/20 11:16:36;;;;;;;6.10;5.20;;;;;;;9.00;100.00;99414.60;108984;1256;71682;-77
2024/02/20 11:19:05;;;;;;;7.10;5.80;;;;;;;9.04;100.00;99410.83;109206;1255;58993;-77
2024/02/20 11:21:33;;;;;;;7.30;5.60;;;;;;;9.10;100.00;99409.26;109219;1255;59471;-76
2024/02/20 11:24:11;;;;;;;8.40;6.30;;;;;;;9.16;100.00;99407.83;109009;1255;65951;-76